Time;durP1;ratioP1;P1;durP2;ratioP2;P2;SDS_P1;SDS_P2;PMS_P1;PMS_P2;Temp;Humidity;BMP_temperature;BMP_pressure;BME280_temperature;BME280_humidity;BME280_pressure;Samples;Min_cycle;Max_cycle;Signal;HPM_P1;HPM_P2
2021/12/06 00:01:55;;;;;;;62.55;36.83;;;;;;;;;;5135406;27;20043;-61
2021/12/06 00:04:26;;;;;;;58.83;36.83;;;;;;;;;;5135231;27;20051;-61
2021/12/06 00:06:54;;;;;;;61.80;36.70;;;;;;;;;;5135132;27;20059;-61
2021/12/06 00:09:21;;;;;;;59.27;35.90;;;;;;;;;;5134763;27;20043;-61
2021/12/06 00:11:50;;;;;;;56.40;33.57;;;;;;;;;;5135232;27;20047;-61
2021/12/06 00:14:16;;;;;;;63.67;34.40;;;;;;;;;;5116355;27;20051;-61
2021/12/06 00:16:42;;;;;;;59.10;35.88;;;;;;;;;;5138309;27;20059;-61
2021/12/06 00:19:11;;;;;;;57.40;34.93;;;;;;;;;;5155930;27;20049;-61
2021/12/06 00:21:37;;;;;;;59.03;33.22;;;;;;;;;;5154338;27;20478;-61
2021/12/06 00:24:04;;;;;;;58.30;33.90;;;;;;;;;;5156008;27;20042;-61
2021/12/06 00:26:30;;;;;;;55.72;33.42;;;;;;;;;;5136532;27;20074;-62
2021/12/06 00:28:58;;;;;;;56.90;34.20;;;;;;;;;;5155557;27;20047;-61
2021/12/06 00:31:25;;;;;;;55.70;33.20;;;;;;;;;;5155018;27;20498;-61
2021/12/06 00:33:58;;;;;;;62.77;36.23;;;;;;;;;;5137242;27;20038;-61
2021/12/06 00:36:28;;;;;;;59.80;35.23;;;;;;;;;;5155053;27;20038;-61
2021/12/06 00:38:54;;;;;;;53.93;31.83;;;;;;;;;;5155523;27;20047;-61
2021/12/06 00:41:20;;;;;;;58.95;37.05;;;;;;;;;;5154779;27;20481;-61
2021/12/06 00:43:47;;;;;;;57.20;34.33;;;;;;;;;;5119996;27;20389;-61
2021/12/06 00:46:13;;;;;;;58.55;34.42;;;;;;;;;;5155459;27;20122;-61
2021/12/06 00:48:39;;;;;;;58.03;34.78;;;;;;;;;;5154899;27;20046;-61
2021/12/06 00:51:05;;;;;;;59.03;34.60;;;;;;;;;;5155140;27;20069;-61
2021/12/06 00:53:31;;;;;;;59.80;34.90;;;;;;;;;;5154750;27;20401;-61
2021/12/06 00:55:57;;;;;;;57.95;35.00;;;;;;;;;;5136613;27;20512;-61
2021/12/06 00:58:24;;;;;;;59.97;36.10;;;;;;;;;;5154815;27;20043;-61
2021/12/06 01:00:52;;;;;;;56.75;34.47;;;;;;;;;;5155091;27;20498;-61
2021/12/06 01:03:21;;;;;;;58.40;35.27;;;;;;;;;;5155019;27;20086;-61
2021/12/06 01:05:48;;;;;;;58.30;36.07;;;;;;;;;;5154045;27;20089;-61
2021/12/06 01:08:14;;;;;;;55.17;31.47;;;;;;;;;;5153963;27;20095;-61
2021/12/06 01:10:43;;;;;;;56.22;33.88;;;;;;;;;;5154209;27;20103;-61
2021/12/06 01:13:09;;;;;;;56.30;35.07;;;;;;;;;;5154804;27;20047;-61
2021/12/06 01:15:36;;;;;;;57.63;35.28;;;;;;;;;;5154012;27;20047;-61
2021/12/06 01:18:03;;;;;;;58.03;34.80;;;;;;;;;;5154461;27;20096;-61
2021/12/06 01:20:32;;;;;;;59.83;35.47;;;;;;;;;;5154069;27;20049;-61
2021/12/06 01:23:05;;;;;;;61.77;35.87;;;;;;;;;;5154435;27;20382;-61
2021/12/06 01:25:42;;;;;;;68.73;40.90;;;;;;;;;;5153596;27;20047;-61
2021/12/06 01:39:11;;;;;;;63.00;36.97;;;;;;;;;;5153811;27;20050;-61
2021/12/06 01:41:38;;;;;;;64.30;34.63;;;;;;;;;;5153399;27;20053;-62
2021/12/06 01:44:04;;;;;;;62.67;35.20;;;;;;;;;;5135247;27;20058;-61
2021/12/06 01:46:31;;;;;;;59.70;33.83;;;;;;;;;;5134962;27;20045;-61
2021/12/06 01:48:57;;;;;;;62.57;35.53;;;;;;;;;;5154006;27;20038;-61
2021/12/06 01:51:24;;;;;;;58.58;34.22;;;;;;;;;;5153968;27;20123;-61
2021/12/06 01:53:50;;;;;;;;;;;;;;;;;;5135267;27;20042;-62
2021/12/06 01:56:16;;;;;;;62.70;36.97;;;;;;;;;;5153620;27;19925;-61
2021/12/06 01:58:43;;;;;;;62.50;35.80;;;;;;;;;;5134732;27;20557;-61
2021/12/06 02:01:09;;;;;;;63.07;35.57;;;;;;;;;;5153720;27;20046;-61
2021/12/06 02:03:35;;;;;;;62.03;34.88;;;;;;;;;;5134816;27;20435;-61
2021/12/06 02:06:02;;;;;;;62.50;34.88;;;;;;;;;;5153573;27;20058;-61
2021/12/06 02:08:28;;;;;;;65.88;38.72;;;;;;;;;;5153171;27;20042;-61
2021/12/06 02:11:00;;;;;;;64.15;35.47;;;;;;;;;;5135049;27;20042;-61
2021/12/06 02:13:30;;;;;;;62.83;36.03;;;;;;;;;;5153552;27;20133;-62
2021/12/06 02:15:56;;;;;;;65.67;35.80;;;;;;;;;;5135274;27;20501;-61
2021/12/06 02:21:13;;;;;;;69.50;36.07;;;;;;;;;;5153589;27;20047;-61
2021/12/06 02:23:39;;;;;;;70.77;36.30;;;;;;;;;;5152895;27;20470;-61
2021/12/06 02:26:06;;;;;;;69.43;36.17;;;;;;;;;;5153290;27;20366;-61
2021/12/06 02:28:32;;;;;;;75.60;36.90;;;;;;;;;;5153251;27;20053;-62
2021/12/06 02:30:58;;;;;;;69.88;38.20;;;;;;;;;;5153612;27;20046;-61
2021/12/06 02:33:24;;;;;;;83.07;39.53;;;;;;;;;;5153199;27;20043;-61
2021/12/06 02:35:52;;;;;;;79.03;39.33;;;;;;;;;;5134792;27;20377;-61
2021/12/06 02:38:18;;;;;;;78.57;39.77;;;;;;;;;;5153215;27;20076;-61
2021/12/06 02:40:45;;;;;;;82.15;42.40;;;;;;;;;;5152973;27;20170;-61
2021/12/06 02:43:11;;;;;;;81.85;42.90;;;;;;;;;;5153140;27;20054;-61
2021/12/06 02:45:38;;;;;;;84.83;41.37;;;;;;;;;;5152747;27;20087;-61
2021/12/06 02:48:05;;;;;;;81.13;40.47;;;;;;;;;;5153328;27;20050;-61
2021/12/06 02:50:37;;;;;;;78.90;41.00;;;;;;;;;;5152599;27;20039;-61
2021/12/06 02:53:03;;;;;;;82.13;39.93;;;;;;;;;;5152618;27;20143;-62
2021/12/06 02:57:58;;;;;;;83.53;41.27;;;;;;;;;;5152397;27;19926;-61
2021/12/06 03:00:24;;;;;;;78.47;42.37;;;;;;;;;;5153044;27;20053;-61
2021/12/06 03:02:50;;;;;;;;;;;;;;;;;;5134618;27;20266;-61
2021/12/06 03:05:16;;;;;;;92.60;44.47;;;;;;;;;;5134558;27;20023;-61
2021/12/06 03:07:46;;;;;;;88.55;43.67;;;;;;;;;;5133654;27;20059;-61
2021/12/06 03:10:13;;;;;;;80.70;43.53;;;;;;;;;;5153352;27;20047;-61
2021/12/06 03:12:39;;;;;;;86.32;45.35;;;;;;;;;;5152485;27;20474;-62
2021/12/06 03:15:06;;;;;;;85.15;43.97;;;;;;;;;;5152888;27;20512;-61
2021/12/06 03:17:33;;;;;;;86.13;43.43;;;;;;;;;;5152970;27;20125;-61
2021/12/06 03:20:00;;;;;;;90.17;44.30;;;;;;;;;;5152401;27;20107;-61
2021/12/06 03:22:27;;;;;;;85.00;44.30;;;;;;;;;;5152911;27;20089;-61
2021/12/06 03:24:53;;;;;;;87.55;43.88;;;;;;;;;;5133514;27;20095;-61
2021/12/06 03:27:19;;;;;;;89.90;44.87;;;;;;;;;;5152266;27;20126;-61
2021/12/06 03:29:46;;;;;;;84.82;43.35;;;;;;;;;;5152788;27;20410;-62
2021/12/06 03:32:12;;;;;;;82.05;44.40;;;;;;;;;;5156513;27;20129;-61
2021/12/06 03:34:38;;;;;;;;;;;;;;;;;;5156744;27;20486;-61
2021/12/06 03:37:05;;;;;;;92.87;44.80;;;;;;;;;;5155853;27;19919;-61
2021/12/06 03:39:34;;;;;;;84.67;43.60;;;;;;;;;;5156494;27;20051;-61
2021/12/06 03:42:02;;;;;;;85.87;43.17;;;;;;;;;;5155400;27;20505;-62
2021/12/06 03:44:29;;;;;;;88.43;46.43;;;;;;;;;;5155813;27;20046;-61
2021/12/06 03:47:06;;;;;;;81.90;42.13;;;;;;;;;;5154981;27;20491;-62
2021/12/06 03:49:32;;;;;;;84.87;44.97;;;;;;;;;;5155949;27;20075;-61
2021/12/06 03:51:58;;;;;;;82.07;44.85;;;;;;;;;;5155257;27;20482;-62
2021/12/06 03:54:26;;;;;;;86.55;43.22;;;;;;;;;;5136988;27;20054;-61
2021/12/06 03:56:52;;;;;;;82.40;42.90;;;;;;;;;;5155060;27;20042;-62
2021/12/06 03:59:18;;;;;;;79.20;40.65;;;;;;;;;;5155288;27;20387;-61
2021/12/06 04:01:46;;;;;;;79.78;43.15;;;;;;;;;;5154830;27;20479;-62
2021/12/06 04:04:12;;;;;;;82.23;43.63;;;;;;;;;;5155217;27;20478;-61
2021/12/06 04:06:39;;;;;;;84.18;43.35;;;;;;;;;;5155522;27;20081;-61
2021/12/06 04:09:06;;;;;;;86.53;43.33;;;;;;;;;;5155343;27;20520;-61
2021/12/06 04:11:32;;;;;;;82.97;44.10;;;;;;;;;;5155879;27;20042;-61
2021/12/06 04:13:58;;;;;;;;;;;;;;;;;;5155597;27;20177;-61
2021/12/06 04:16:24;;;;;;;90.60;46.57;;;;;;;;;;5155261;27;19926;-61
2021/12/06 04:18:51;;;;;;;76.38;38.97;;;;;;;;;;5155042;27;20043;-61
2021/12/06 04:21:18;;;;;;;75.32;41.15;;;;;;;;;;5155677;27;20042;-61
2021/12/06 04:23:44;;;;;;;80.20;42.60;;;;;;;;;;5155028;27;20098;-61
2021/12/06 04:26:11;;;;;;;79.45;42.05;;;;;;;;;;5136152;27;20367;-61
2021/12/06 04:28:39;;;;;;;;;;;;;;;;;;5155374;27;20099;-61
2021/12/06 04:31:06;;;;;;;90.43;45.17;;;;;;;;;;5154898;27;19923;-61
2021/12/06 04:33:32;;;;;;;85.03;42.67;;;;;;;;;;5155085;27;20509;-61
2021/12/06 04:35:58;;;;;;;85.97;43.83;;;;;;;;;;5136105;27;20049;-61
2021/12/06 04:38:24;;;;;;;89.95;42.20;;;;;;;;;;5155389;27;20395;-61
2021/12/06 04:40:50;;;;;;;81.75;43.60;;;;;;;;;;5136224;27;20057;-61
2021/12/06 04:43:16;;;;;;;93.93;47.15;;;;;;;;;;5154930;27;20047;-61
2021/12/06 04:45:42;;;;;;;;;;;;;;;;;;5155429;27;20054;-61
2021/12/06 04:48:09;;;;;;;98.53;46.23;;;;;;;;;;5154482;27;19923;-61
2021/12/06 04:50:37;;;;;;;89.23;45.07;;;;;;;;;;5154143;27;20470;-61
2021/12/06 04:53:07;;;;;;;91.50;45.93;;;;;;;;;;5153702;27;20439;-61
2021/12/06 04:55:39;;;;;;;93.77;46.10;;;;;;;;;;5154997;27;20043;-61
2021/12/06 04:58:06;;;;;;;92.37;46.33;;;;;;;;;;5154077;27;20152;-61
2021/12/06 05:00:32;;;;;;;92.70;45.70;;;;;;;;;;5154757;27;20155;-61
2021/12/06 05:02:59;;;;;;;106.72;48.08;;;;;;;;;;5154493;27;20147;-61
2021/12/06 05:05:45;;;;;;;111.47;49.03;;;;;;;;;;5136097;27;20133;-61
2021/12/06 05:08:21;;;;;;;104.83;47.90;;;;;;;;;;5132774;27;20127;-61
2021/12/06 05:10:47;;;;;;;118.45;49.95;;;;;;;;;;5134075;27;20129;-61
2021/12/06 05:13:13;;;;;;;110.70;47.22;;;;;;;;;;5115041;27;20051;-61
2021/12/06 05:15:40;;;;;;;107.00;45.28;;;;;;;;;;5133903;27;20529;-61
2021/12/06 05:18:06;;;;;;;106.80;45.03;;;;;;;;;;5133118;27;20043;-61
2021/12/06 05:20:33;;;;;;;105.65;45.70;;;;;;;;;;5133407;27;20079;-61
2021/12/06 05:22:58;;;;;;;;;;;;;;;;;;5138799;27;20046;-61
2021/12/06 05:25:26;;;;;;;96.23;43.97;;;;;;;;;;5154150;27;20382;-61
2021/12/06 05:27:52;;;;;;;108.87;45.37;;;;;;;;;;5154345;27;20035;-61
2021/12/06 05:30:21;;;;;;;;;;;;;;;;;;5154365;27;20494;-61
2021/12/06 05:32:47;;;;;;;98.57;43.87;;;;;;;;;;5153953;27;20319;-61
2021/12/06 05:35:13;;;;;;;;;;;;;;;;;;5153915;27;20526;-61
2021/12/06 05:37:41;;;;;;;97.13;44.73;;;;;;;;;;5135185;27;19919;-61
2021/12/06 05:40:09;;;;;;;100.90;46.20;;;;;;;;;;5153370;27;20108;-61
2021/12/06 05:42:36;;;;;;;101.30;45.87;;;;;;;;;;5153856;27;20049;-61
2021/12/06 05:45:02;;;;;;;108.38;47.65;;;;;;;;;;5153313;27;20436;-61
2021/12/06 05:47:28;;;;;;;101.53;45.38;;;;;;;;;;5135140;27;20509;-61
2021/12/06 05:49:54;;;;;;;98.75;45.75;;;;;;;;;;5153723;27;20054;-61
2021/12/06 05:52:20;;;;;;;117.60;46.67;;;;;;;;;;5153021;27;20524;-61
2021/12/06 05:54:46;;;;;;;112.53;45.17;;;;;;;;;;5135595;27;20130;-61
2021/12/06 05:57:13;;;;;;;106.25;46.25;;;;;;;;;;5153221;27;20447;-61
2021/12/06 05:59:40;;;;;;;109.00;49.42;;;;;;;;;;5153909;27;20539;-61
2021/12/06 06:02:07;;;;;;;113.60;47.17;;;;;;;;;;5153345;27;20088;-61
2021/12/06 06:04:34;;;;;;;119.13;48.00;;;;;;;;;;5153317;27;20506;-61
2021/12/06 06:07:00;;;;;;;110.33;48.03;;;;;;;;;;5153207;27;20058;-62
2021/12/06 06:09:26;;;;;;;112.57;44.92;;;;;;;;;;5153835;27;20178;-61
2021/12/06 06:11:52;;;;;;;109.53;47.10;;;;;;;;;;5153817;27;20043;-61
2021/12/06 06:14:19;;;;;;;111.18;50.10;;;;;;;;;;5153126;27;20081;-62
2021/12/06 06:16:51;;;;;;;111.30;47.38;;;;;;;;;;5153385;27;20038;-62
2021/12/06 06:19:18;;;;;;;101.90;47.20;;;;;;;;;;5149986;27;20047;-62
2021/12/06 06:21:44;;;;;;;100.37;42.93;;;;;;;;;;5153109;27;20379;-61
2021/12/06 06:24:10;;;;;;;106.95;46.63;;;;;;;;;;5153185;27;20043;-62
2021/12/06 06:26:36;;;;;;;99.20;43.08;;;;;;;;;;5153411;27;20046;-62
2021/12/06 06:29:02;;;;;;;102.10;43.58;;;;;;;;;;5152859;27;20058;-62
2021/12/06 06:31:29;;;;;;;108.67;46.00;;;;;;;;;;5152975;27;20374;-61
2021/12/06 06:33:55;;;;;;;111.15;46.78;;;;;;;;;;5149839;27;20129;-61
2021/12/06 06:36:21;;;;;;;106.55;44.75;;;;;;;;;;5152897;27;20035;-61
2021/12/06 06:38:47;;;;;;;102.50;46.22;;;;;;;;;;5153001;27;20050;-61
2021/12/06 06:41:13;;;;;;;109.65;46.42;;;;;;;;;;5152575;27;20118;-61
2021/12/06 06:43:39;;;;;;;106.03;44.33;;;;;;;;;;5146903;27;20434;-61
2021/12/06 06:46:05;;;;;;;96.15;42.78;;;;;;;;;;5132140;27;20047;-62
2021/12/06 06:48:32;;;;;;;90.20;40.07;;;;;;;;;;5142321;27;20070;-62
2021/12/06 06:50:58;;;;;;;94.68;42.22;;;;;;;;;;5153458;27;20042;-61
2021/12/06 06:53:24;;;;;;;88.35;40.80;;;;;;;;;;5152830;27;20047;-62
2021/12/06 06:55:50;;;;;;;97.22;41.70;;;;;;;;;;5153169;27;20082;-61
2021/12/06 06:58:16;;;;;;;104.00;44.17;;;;;;;;;;5152507;27;20054;-60
2021/12/06 07:00:42;;;;;;;100.45;44.10;;;;;;;;;;5134911;27;20062;-61
2021/12/06 07:03:09;;;;;;;106.03;45.85;;;;;;;;;;5152432;27;20056;-61
2021/12/06 07:05:35;;;;;;;;;;;;;;;;;;5155666;27;20057;-61
2021/12/06 07:08:01;;;;;;;106.80;43.67;;;;;;;;;;5121018;27;19919;-61
2021/12/06 07:10:27;;;;;;;100.20;43.15;;;;;;;;;;5156495;27;20258;-61
2021/12/06 07:12:54;;;;;;;113.82;47.03;;;;;;;;;;5156935;27;20047;-61
2021/12/06 07:15:22;;;;;;;106.77;42.63;;;;;;;;;;5156620;27;20050;-61
2021/12/06 07:17:48;;;;;;;105.27;44.17;;;;;;;;;;5138109;27;20125;-61
2021/12/06 07:20:14;;;;;;;;;;;;;;;;;;5156842;27;20125;-60
2021/12/06 07:22:42;;;;;;;118.40;48.80;;;;;;;;;;5155565;27;19969;-61
2021/12/06 07:25:08;;;;;;;114.93;47.83;;;;;;;;;;5156537;27;20133;-60
2021/12/06 07:27:35;;;;;;;118.60;48.50;;;;;;;;;;5152458;27;20064;-61
2021/12/06 07:30:01;;;;;;;123.95;48.88;;;;;;;;;;5156791;27;20057;-60
2021/12/06 07:32:27;;;;;;;126.43;50.45;;;;;;;;;;5154207;27;20051;-60
2021/12/06 07:34:55;;;;;;;124.43;49.08;;;;;;;;;;5155877;27;20038;-61
2021/12/06 07:37:21;;;;;;;105.93;44.40;;;;;;;;;;5155527;27;20047;-61
2021/12/06 07:39:47;;;;;;;113.45;45.00;;;;;;;;;;5156294;27;20042;-61
2021/12/06 07:42:13;;;;;;;107.43;44.13;;;;;;;;;;5153825;27;20060;-61
2021/12/06 07:44:40;;;;;;;110.18;45.22;;;;;;;;;;5131428;27;20049;-61
2021/12/06 07:47:06;;;;;;;107.57;45.77;;;;;;;;;;5134189;27;20727;-61
2021/12/06 07:49:32;;;;;;;;;;;;;;;;;;5134010;27;20057;-62
2021/12/06 07:51:58;;;;;;;126.70;47.93;;;;;;;;;;5134680;27;19959;-61
2021/12/06 07:54:24;;;;;;;110.50;45.63;;;;;;;;;;5130508;27;20043;-62
2021/12/06 07:56:50;;;;;;;122.28;47.58;;;;;;;;;;5136254;27;20517;-61
2021/12/06 07:59:17;;;;;;;107.70;44.33;;;;;;;;;;5154093;27;20091;-63
2021/12/06 08:01:43;;;;;;;108.72;42.75;;;;;;;;;;5136060;27;20089;-62
2021/12/06 08:04:09;;;;;;;108.95;44.58;;;;;;;;;;5136256;27;20130;-62
2021/12/06 08:06:37;;;;;;;110.50;44.95;;;;;;;;;;5153339;27;20062;-61
2021/12/06 08:09:03;;;;;;;113.47;46.53;;;;;;;;;;5136242;27;20051;-61
2021/12/06 08:11:30;;;;;;;;;;;;;;;;;;5154352;27;20047;-61
2021/12/06 08:13:56;;;;;;;119.33;45.50;;;;;;;;;;5135533;27;19918;-61
2021/12/06 08:16:27;;;;;;;113.55;46.00;;;;;;;;;;5152984;27;20130;-61
2021/12/06 08:18:53;;;;;;;128.57;48.93;;;;;;;;;;5153995;27;20047;-61
2021/12/06 08:21:20;;;;;;;121.72;45.35;;;;;;;;;;5153531;27;20466;-62
2021/12/06 08:23:49;;;;;;;120.80;48.30;;;;;;;;;;5153972;27;20516;-61
2021/12/06 08:26:15;;;;;;;115.47;47.23;;;;;;;;;;5153306;27;20055;-61
2021/12/06 08:28:42;;;;;;;124.30;47.77;;;;;;;;;;5135032;27;20043;-61
2021/12/06 08:31:09;;;;;;;127.13;48.37;;;;;;;;;;5153994;27;20043;-61
2021/12/06 08:33:36;;;;;;;128.73;48.10;;;;;;;;;;5153594;27;20091;-61
2021/12/06 08:36:04;;;;;;;115.57;44.43;;;;;;;;;;5153439;27;20039;-61
2021/12/06 08:38:30;;;;;;;120.13;46.23;;;;;;;;;;5153268;27;20474;-62
2021/12/06 08:40:58;;;;;;;132.90;48.43;;;;;;;;;;5153600;27;20061;-62
2021/12/06 08:43:25;;;;;;;128.10;46.13;;;;;;;;;;5153029;27;20065;-62
2021/12/06 08:45:51;;;;;;;;;;;;;;;;;;5154243;27;20133;-61
2021/12/06 08:48:17;;;;;;;108.77;43.87;;;;;;;;;;5153140;27;20001;-61
2021/12/06 08:50:43;;;;;;;123.65;47.03;;;;;;;;;;5153067;27;20049;-61
2021/12/06 08:53:09;;;;;;;116.97;44.88;;;;;;;;;;5153682;27;20051;-61
2021/12/06 08:55:35;;;;;;;119.57;46.55;;;;;;;;;;5152845;27;20089;-63
2021/12/06 08:58:02;;;;;;;117.55;48.25;;;;;;;;;;5153276;27;20134;-63
2021/12/06 09:00:31;;;;;;;122.77;45.97;;;;;;;;;;5152995;27;20038;-62
2021/12/06 09:02:58;;;;;;;119.23;47.53;;;;;;;;;;5135048;27;20410;-62
2021/12/06 09:05:25;;;;;;;106.95;44.08;;;;;;;;;;5152731;27;20405;-62
2021/12/06 09:07:52;;;;;;;103.80;42.07;;;;;;;;;;5152725;27;20054;-61
2021/12/06 09:10:18;;;;;;;;;;;;;;;;;;5135046;27;20047;-61
2021/12/06 09:12:45;;;;;;;106.47;42.17;;;;;;;;;;5152663;27;19929;-61
2021/12/06 09:15:16;;;;;;;96.43;41.80;;;;;;;;;;5153021;27;20051;-61
2021/12/06 09:17:42;;;;;;;94.03;41.07;;;;;;;;;;5152557;27;20107;-61
2021/12/06 09:20:10;;;;;;;90.40;38.95;;;;;;;;;;5152146;27;20066;-62
2021/12/06 09:22:37;;;;;;;93.87;41.53;;;;;;;;;;5134015;27;20039;-61
2021/12/06 09:25:03;;;;;;;;;;;;;;;;;;5153314;27;20071;-61
2021/12/06 09:27:30;;;;;;;91.80;38.47;;;;;;;;;;5151136;27;19919;-63
2021/12/06 09:29:57;;;;;;;87.20;37.93;;;;;;;;;;5134098;27;20046;-62
2021/12/06 09:32:24;;;;;;;85.40;38.27;;;;;;;;;;5152604;27;20047;-63
2021/12/06 09:34:54;;;;;;;83.25;39.88;;;;;;;;;;5133648;27;20077;-63
2021/12/06 09:37:20;;;;;;;91.07;36.57;;;;;;;;;;5152186;27;20054;-61
2021/12/06 09:39:47;;;;;;;86.50;37.42;;;;;;;;;;5151975;27;20321;-62
2021/12/06 09:42:14;;;;;;;77.93;35.77;;;;;;;;;;5152694;27;20073;-62
2021/12/06 09:44:40;;;;;;;80.30;34.85;;;;;;;;;;5152112;27;20512;-62
2021/12/06 09:47:06;;;;;;;83.38;36.20;;;;;;;;;;5152340;27;20049;-62
2021/12/06 09:49:32;;;;;;;79.05;35.30;;;;;;;;;;5151710;27;20443;-63
2021/12/06 09:51:58;;;;;;;;;;;;;;;;;;5152655;27;20407;-62
2021/12/06 09:54:29;;;;;;;71.03;32.03;;;;;;;;;;5133813;27;19919;-63
2021/12/06 09:56:56;;;;;;;70.80;33.17;;;;;;;;;;5151134;27;20051;-63
2021/12/06 09:59:24;;;;;;;68.87;33.90;;;;;;;;;;5151768;27;20130;-62
2021/12/06 10:01:53;;;;;;;63.20;31.43;;;;;;;;;;5151649;27;20528;-63
2021/12/06 10:04:24;;;;;;;67.80;33.53;;;;;;;;;;5152008;27;20047;-63
2021/12/06 10:06:50;;;;;;;72.90;33.20;;;;;;;;;;5151281;27;20043;-63
2021/12/06 10:09:18;;;;;;;72.78;31.95;;;;;;;;;;5151888;27;20050;-63
2021/12/06 10:11:45;;;;;;;57.80;29.40;;;;;;;;;;5151407;27;20538;-62
2021/12/06 10:14:12;;;;;;;61.80;27.77;;;;;;;;;;5151959;27;20043;-62
2021/12/06 10:16:38;;;;;;;62.07;29.63;;;;;;;;;;5133208;27;20043;-63
2021/12/06 10:19:08;;;;;;;62.63;30.77;;;;;;;;;;5151709;27;20046;-62
2021/12/06 10:21:38;;;;;;;68.77;32.03;;;;;;;;;;5112769;28;20321;-63
2021/12/06 10:24:08;;;;;;;67.67;31.13;;;;;;;;;;5131690;28;20082;-62
2021/12/06 10:26:34;;;;;;;66.37;32.37;;;;;;;;;;5130885;28;20054;-63
2021/12/06 10:29:06;;;;;;;67.97;31.35;;;;;;;;;;5112790;28;20039;-63
2021/12/06 10:31:39;;;;;;;64.87;30.63;;;;;;;;;;5130145;27;20543;-64
2021/12/06 10:34:05;;;;;;;65.17;31.70;;;;;;;;;;5133467;27;20183;-62
2021/12/06 10:36:33;;;;;;;61.97;32.17;;;;;;;;;;5132518;27;20397;-62
2021/12/06 10:39:04;;;;;;;64.50;32.50;;;;;;;;;;5152761;27;20061;-63
2021/12/06 10:41:32;;;;;;;59.90;30.97;;;;;;;;;;5156030;27;20103;-62
2021/12/06 10:44:00;;;;;;;60.63;28.73;;;;;;;;;;5155486;27;20385;-62
2021/12/06 10:46:27;;;;;;;60.13;28.13;;;;;;;;;;5137351;27;20501;-62
2021/12/06 10:48:55;;;;;;;60.87;29.50;;;;;;;;;;5155033;27;20214;-62
2021/12/06 10:51:23;;;;;;;59.57;29.73;;;;;;;;;;5137354;27;20050;-62
2021/12/06 10:54:01;;;;;;;67.07;30.63;;;;;;;;;;5136821;27;20085;-62
2021/12/06 10:56:38;;;;;;;66.73;30.97;;;;;;;;;;5155664;27;20053;-62
2021/12/06 10:59:05;;;;;;;61.60;30.55;;;;;;;;;;5154068;27;20521;-62
2021/12/06 11:01:32;;;;;;;61.17;31.47;;;;;;;;;;5137307;27;20490;-62
2021/12/06 11:04:00;;;;;;;65.23;31.20;;;;;;;;;;5155295;27;20133;-62
2021/12/06 11:06:44;;;;;;;60.63;30.80;;;;;;;;;;5155133;27;20351;-62
2021/12/06 11:09:14;;;;;;;55.37;27.77;;;;;;;;;;5153602;27;20517;-62
2021/12/06 11:11:44;;;;;;;57.53;30.73;;;;;;;;;;5154803;27;20459;-62
2021/12/06 11:14:12;;;;;;;55.80;28.37;;;;;;;;;;5155293;27;20490;-62
2021/12/06 11:16:42;;;;;;;53.80;27.87;;;;;;;;;;5155756;27;20038;-62
2021/12/06 11:19:10;;;;;;;58.90;27.97;;;;;;;;;;5137558;27;20433;-62
2021/12/06 11:21:42;;;;;;;54.53;28.63;;;;;;;;;;5133016;27;20464;-61
2021/12/06 11:24:14;;;;;;;54.90;27.47;;;;;;;;;;5147484;27;20159;-62
2021/12/06 11:26:46;;;;;;;63.57;30.57;;;;;;;;;;5144514;27;20126;-63
2021/12/06 11:29:17;;;;;;;60.87;30.37;;;;;;;;;;5142652;27;20039;-62
2021/12/06 11:31:49;;;;;;;64.23;31.53;;;;;;;;;;5127401;27;20043;-63
2021/12/06 11:34:16;;;;;;;71.60;33.53;;;;;;;;;;5152630;27;20094;-63
2021/12/06 11:36:42;;;;;;;68.57;32.60;;;;;;;;;;5154723;27;20116;-64
2021/12/06 11:39:11;;;;;;;71.53;34.20;;;;;;;;;;5151161;27;20498;-63
2021/12/06 11:41:39;;;;;;;73.37;35.57;;;;;;;;;;5127565;27;20039;-63
2021/12/06 11:44:18;;;;;;;75.67;38.03;;;;;;;;;;5133638;27;20050;-63
2021/12/06 11:46:44;;;;;;;72.43;36.10;;;;;;;;;;5115108;27;20035;-63
2021/12/06 11:49:20;;;;;;;70.13;34.83;;;;;;;;;;5133829;27;20054;-63
2021/12/06 11:51:46;;;;;;;67.90;33.10;;;;;;;;;;5148024;27;20107;-64
2021/12/06 11:54:12;;;;;;;;;;;;;;;;;;5144748;27;20121;-62
2021/12/06 11:56:44;;;;;;;62.33;31.10;;;;;;;;;;5152427;27;20118;-62
2021/12/06 11:59:15;;;;;;;65.90;33.17;;;;;;;;;;5154281;27;20137;-62
2021/12/06 12:01:43;;;;;;;61.30;29.80;;;;;;;;;;5125853;27;20051;-63
2021/12/06 12:04:11;;;;;;;58.50;29.80;;;;;;;;;;5138785;27;20039;-62
2021/12/06 12:06:43;;;;;;;58.17;29.13;;;;;;;;;;5115323;27;20061;-61
2021/12/06 12:09:18;;;;;;;61.67;29.57;;;;;;;;;;5137757;27;20043;-62
2021/12/06 12:12:03;;;;;;;60.53;30.93;;;;;;;;;;5141153;27;20072;-61
2021/12/06 12:14:44;;;;;;;60.97;30.10;;;;;;;;;;5149242;27;20050;-61
2021/12/06 12:17:16;;;;;;;63.00;29.67;;;;;;;;;;5134415;27;20039;-62
2021/12/06 12:19:42;;;;;;;57.77;28.77;;;;;;;;;;5149685;27;20113;-61
2021/12/06 12:22:09;;;;;;;54.73;26.53;;;;;;;;;;5148654;27;20050;-62
2021/12/06 12:24:38;;;;;;;52.50;27.20;;;;;;;;;;5127829;27;20043;-61
2021/12/06 12:27:21;;;;;;;51.73;25.77;;;;;;;;;;5132630;27;20054;-61
2021/12/06 12:29:48;;;;;;;46.67;24.37;;;;;;;;;;5146250;27;20054;-62
2021/12/06 12:32:15;;;;;;;47.97;24.97;;;;;;;;;;5132079;27;20069;-62
2021/12/06 12:34:45;;;;;;;50.53;27.17;;;;;;;;;;5151601;27;20047;-61
2021/12/06 12:37:13;;;;;;;46.60;25.27;;;;;;;;;;5152949;27;20038;-61
2021/12/06 12:39:39;;;;;;;51.93;26.30;;;;;;;;;;5145486;27;20053;-62
2021/12/06 12:42:05;;;;;;;;;;;;;;;;;;5141773;27;20052;-62
2021/12/06 12:44:42;;;;;;;51.17;27.53;;;;;;;;;;5150958;27;19997;-62
2021/12/06 12:47:21;;;;;;;52.28;25.88;;;;;;;;;;5142187;27;20482;-62
2021/12/06 12:49:50;;;;;;;52.50;29.07;;;;;;;;;;5148405;27;20046;-62
2021/12/06 12:52:17;;;;;;;52.63;28.30;;;;;;;;;;5146177;27;20571;-62
2021/12/06 12:54:45;;;;;;;55.70;28.17;;;;;;;;;;5149838;27;20039;-62
2021/12/06 12:57:16;;;;;;;55.07;30.10;;;;;;;;;;5148133;27;20230;-64
2021/12/06 12:59:48;;;;;;;56.40;29.00;;;;;;;;;;5133289;27;20127;-63
2021/12/06 13:02:19;;;;;;;54.40;28.83;;;;;;;;;;5134034;27;20051;-63
2021/12/06 13:05:00;;;;;;;59.47;28.70;;;;;;;;;;5146254;27;20050;-63
2021/12/06 13:07:33;;;;;;;55.27;28.77;;;;;;;;;;5131847;27;20051;-62
2021/12/06 13:10:19;;;;;;;52.57;27.33;;;;;;;;;;5133594;27;20502;-63
2021/12/06 13:13:04;;;;;;;56.80;29.20;;;;;;;;;;5150579;27;20070;-63
2021/12/06 13:16:31;;;;;;;58.50;29.47;;;;;;;;;;5151562;27;20050;-62
2021/12/06 13:18:49;;;;;;;60.53;31.00;;;;;;;;;;5135386;27;20038;-63
2021/12/06 13:21:43;;;;;;;60.80;28.73;;;;;;;;;;5132541;27;20409;-62
2021/12/06 13:24:12;;;;;;;58.50;27.80;;;;;;;;;;5113974;27;20435;-64
2021/12/06 13:26:46;;;;;;;61.83;28.90;;;;;;;;;;5144419;27;20039;-63
2021/12/06 13:29:15;;;;;;;61.87;29.80;;;;;;;;;;5142473;27;20039;-62
2021/12/06 13:31:41;;;;;;;64.63;30.60;;;;;;;;;;5150639;27;20038;-62
2021/12/06 13:34:16;;;;;;;66.30;30.35;;;;;;;;;;5106235;27;20720;-62
2021/12/06 13:36:44;;;;;;;67.30;30.53;;;;;;;;;;5076493;28;20040;-63
2021/12/06 13:39:29;;;;;;;66.90;33.70;;;;;;;;;;5089867;28;20044;-63
2021/12/06 13:41:55;;;;;;;73.70;34.37;;;;;;;;;;5089712;28;20055;-62
2021/12/06 13:44:22;;;;;;;;;;;;;;;;;;5089950;28;20040;-62
2021/12/06 13:46:53;;;;;;;73.80;35.03;;;;;;;;;;5057375;28;19971;-62
2021/12/06 13:49:21;;;;;;;65.77;33.10;;;;;;;;;;5089557;28;20040;-61
2021/12/06 13:51:55;;;;;;;73.00;34.57;;;;;;;;;;5085215;28;20066;-61
2021/12/06 13:54:26;;;;;;;82.40;35.53;;;;;;;;;;5084407;28;20113;-61
2021/12/06 13:56:52;;;;;;;79.90;37.70;;;;;;;;;;5071443;28;20090;-61
2021/12/06 13:59:27;;;;;;;80.60;38.10;;;;;;;;;;5072064;28;20050;-62
2021/12/06 14:01:55;;;;;;;83.93;40.07;;;;;;;;;;5086368;28;20040;-61
2021/12/06 14:04:23;;;;;;;84.83;38.47;;;;;;;;;;5074434;28;20049;-61
2021/12/06 14:06:51;;;;;;;82.70;38.60;;;;;;;;;;5082637;28;20558;-61
2021/12/06 14:09:19;;;;;;;80.33;37.23;;;;;;;;;;5088892;28;20529;-61
2021/12/06 14:11:51;;;;;;;89.27;38.23;;;;;;;;;;5090257;28;20051;-61
2021/12/06 14:14:18;;;;;;;89.97;40.23;;;;;;;;;;5088771;28;20044;-61
2021/12/06 14:16:44;;;;;;;94.45;41.00;;;;;;;;;;5085398;28;20055;-62
2021/12/06 14:19:11;;;;;;;93.82;38.60;;;;;;;;;;5080537;28;20052;-61
2021/12/06 14:21:38;;;;;;;83.83;39.10;;;;;;;;;;5080931;28;20063;-61
2021/12/06 14:24:05;;;;;;;97.97;40.10;;;;;;;;;;5079790;28;20049;-63
2021/12/06 14:26:32;;;;;;;99.53;42.23;;;;;;;;;;5088262;28;20044;-62
2021/12/06 14:28:58;;;;;;;98.00;43.13;;;;;;;;;;5066522;28;20044;-62
2021/12/06 14:31:25;;;;;;;99.97;42.65;;;;;;;;;;5087595;28;20036;-61
2021/12/06 14:33:51;;;;;;;98.27;43.57;;;;;;;;;;5070307;28;20400;-61
2021/12/06 14:36:21;;;;;;;104.60;44.55;;;;;;;;;;5087506;28;20105;-61
2021/12/06 14:38:47;;;;;;;99.53;44.20;;;;;;;;;;5088858;28;20036;-61
2021/12/06 14:41:14;;;;;;;100.13;44.35;;;;;;;;;;5069798;28;20146;-61
2021/12/06 14:43:40;;;;;;;102.05;44.33;;;;;;;;;;5080380;28;20056;-62